Time;durP1;ratioP1;P1;durP2;ratioP2;P2;SDS_P1;SDS_P2;PMS_P1;PMS_P2;Temp;Humidity;BMP_temperature;BMP_pressure;BME280_temperature;BME280_humidity;BME280_pressure;Samples;Min_cycle;Max_cycle;Signal;HPM_P1;HPM_P2
2022/07/07 00:00:54;;;;;;;1.72;1.45;;;;;;;13.53;76.05;96888.44;1666531;86;21074;-86
2022/07/07 00:03:19;;;;;;;3.52;1.92;;;;;;;13.50;75.98;96894.81;1667163;86;21123;-87
2022/07/07 00:05:46;;;;;;;5.55;1.50;;;;;;;13.46;76.58;96892.27;1667012;86;21055;-88
2022/07/07 00:08:12;;;;;;;1.72;1.55;;;;;;;13.44;76.13;96890.35;1665875;86;21377;-87
2022/07/07 00:10:38;;;;;;;2.17;1.65;;;;;;;13.41;75.47;96887.62;1666332;86;21006;-87
2022/07/07 00:13:04;;;;;;;2.62;1.40;;;;;;;13.38;75.44;96882.78;1665879;86;21027;-87
2022/07/07 00:15:29;;;;;;;2.42;1.50;;;;;;;13.33;75.25;96884.31;1666441;86;21150;-87
2022/07/07 00:17:56;;;;;;;3.05;1.72;;;;;;;13.26;75.34;96885.56;1666446;86;21274;-87
2022/07/07 00:20:21;;;;;;;4.70;1.75;;;;;;;13.20;75.55;96880.61;1667517;86;21365;-87
2022/07/07 00:22:47;;;;;;;3.37;1.50;;;;;;;13.15;76.00;96873.78;1667766;86;21374;-87
2022/07/07 00:25:13;;;;;;;3.35;1.75;;;;;;;13.14;76.28;96876.08;1666642;86;21053;-86
2022/07/07 00:27:38;;;;;;;4.10;1.70;;;;;;;13.14;76.21;96868.75;1666603;86;21358;-86
2022/07/07 00:30:05;;;;;;;4.72;1.37;;;;;;;13.13;76.54;96860.11;1664946;86;20984;-86
2022/07/07 00:32:31;;;;;;;2.83;1.50;;;;;;;13.10;76.47;96863.09;1646567;86;21454;-86
2022/07/07 00:34:57;;;;;;;3.45;1.92;;;;;;;13.09;76.54;96865.40;1663603;86;21083;-86
2022/07/07 00:37:23;;;;;;;4.22;2.00;;;;;;;13.06;76.87;96861.86;1647887;87;21083;-86
2022/07/07 00:39:49;;;;;;;3.92;2.00;;;;;;;13.02;76.85;96854.10;1662604;86;21429;-87
2022/07/07 00:42:15;;;;;;;3.17;1.75;;;;;;;13.02;77.28;96857.20;1654906;87;21055;-86
2022/07/07 00:44:43;;;;;;;2.40;1.52;;;;;;;13.02;76.80;96859.81;1647744;87;21084;-86
2022/07/07 00:47:08;;;;;;;5.35;1.60;;;;;;;13.02;76.70;96855.41;1648113;87;21991;-87
2022/07/07 00:49:38;;;;;;;2.87;1.80;;;;;;;12.92;77.18;96840.55;1644600;87;21100;-87
2022/07/07 00:52:04;;;;;;;3.98;1.87;;;;;;;13.06;77.32;96857.14;1662505;86;20988;-87
2022/07/07 00:54:30;;;;;;;3.45;1.75;;;;;;;13.08;77.49;96862.98;1664624;86;21021;-88
2022/07/07 00:56:56;;;;;;;3.40;1.87;;;;;;;13.07;77.45;96860.87;1625564;87;21001;-88
2022/07/07 00:59:22;;;;;;;2.87;1.92;;;;;;;13.08;77.75;96864.28;1663083;86;21019;-88
2022/07/07 01:01:47;;;;;;;2.77;1.82;;;;;;;13.08;77.81;96866.89;1663230;86;20955;-87
2022/07/07 01:04:13;;;;;;;3.90;1.72;;;;;;;13.08;77.83;96869.00;1653937;87;21030;-88
2022/07/07 01:06:40;;;;;;;2.70;1.65;;;;;;;13.10;77.52;96869.63;1648177;87;20978;-87
2022/07/07 01:09:05;;;;;;;3.40;1.72;;;;;;;13.13;77.41;96864.52;1648549;87;21083;-87
2022/07/07 01:11:54;;;;;;;2.77;1.40;;;;;;;13.11;77.08;96864.72;1648512;87;21104;-87
2022/07/07 01:14:20;;;;;;;4.53;1.60;;;;;;;13.11;77.11;96859.99;1597448;89;21573;-87
2022/07/07 01:16:46;;;;;;;3.52;1.70;;;;;;;13.10;77.18;96855.77;1640547;86;21130;-87
2022/07/07 01:19:13;;;;;;;4.50;2.17;;;;;;;13.05;77.29;96858.95;1661729;86;21385;-87
2022/07/07 01:21:58;;;;;;;1.80;1.70;;;;;;;12.99;77.63;96863.58;1654089;87;20994;-86
2022/07/07 01:24:26;;;;;;;3.25;1.60;;;;;;;12.95;77.72;96870.16;1647567;87;21417;-86
2022/07/07 01:27:14;;;;;;;3.25;1.80;;;;;;;12.94;77.42;96872.46;1644328;87;21040;-87
2022/07/07 01:29:45;;;;;;;2.10;1.40;;;;;;;12.92;77.43;96872.65;1617495;87;21032;-86
2022/07/07 01:32:11;;;;;;;2.47;1.92;;;;;;;12.92;77.84;96871.84;1647946;87;21040;-86
2022/07/07 01:34:38;;;;;;;3.05;2.45;;;;;;;12.92;78.12;96875.26;1654208;86;21453;-86
2022/07/07 01:37:05;;;;;;;3.83;2.37;;;;;;;12.91;78.34;96876.75;1667816;86;21079;-86
2022/07/07 01:39:31;;;;;;;3.15;2.08;;;;;;;12.88;77.96;96886.25;1635276;87;21425;-86
2022/07/07 01:41:57;;;;;;;2.62;2.30;;;;;;;12.87;78.32;96884.63;1635006;87;20943;-86
2022/07/07 01:44:23;;;;;;;2.25;2.00;;;;;;;12.83;78.35;96873.73;1633376;88;21134;-87
2022/07/07 01:46:48;;;;;;;2.58;1.87;;;;;;;12.80;78.40;96866.28;1633912;88;21427;-86
2022/07/07 01:49:15;;;;;;;3.05;1.90;;;;;;;12.79;78.46;96860.76;1634111;88;21602;-86
2022/07/07 01:51:41;;;;;;;2.72;1.80;;;;;;;12.77;78.43;96864.55;1634073;88;20971;-87
2022/07/07 01:54:06;;;;;;;2.95;1.90;;;;;;;12.74;78.64;96872.25;1630815;88;21113;-86
2022/07/07 01:56:32;;;;;;;2.98;1.87;;;;;;;12.69;78.79;96879.81;1633014;87;21407;-86
2022/07/07 01:58:58;;;;;;;2.77;2.30;;;;;;;12.65;79.22;96873.82;1634383;87;21358;-86
2022/07/07 02:01:24;;;;;;;3.27;2.45;;;;;;;12.60;79.36;96866.55;1634547;88;21111;-87
2022/07/07 02:03:50;;;;;;;3.12;1.87;;;;;;;12.57;79.48;96866.43;1634336;88;20999;-85
2022/07/07 02:06:15;;;;;;;2.45;1.98;;;;;;;12.56;79.62;96867.42;1630753;88;21030;-86
2022/07/07 02:08:41;;;;;;;3.02;1.90;;;;;;;12.51;79.89;96860.63;1634524;87;21366;-86
2022/07/07 02:11:13;;;;;;;3.33;2.20;;;;;;;12.44;80.53;96852.42;1611721;88;20954;-86
2022/07/07 02:13:47;;;;;;;2.42;1.90;;;;;;;12.38;80.66;96850.06;1634760;88;21428;-87
2022/07/07 02:16:13;;;;;;;2.50;1.50;;;;;;;12.32;80.45;96852.87;1609224;88;21086;-87
2022/07/07 02:18:40;;;;;;;3.60;1.90;;;;;;;12.32;80.65;96852.87;1624748;86;21070;-87
2022/07/07 02:21:08;;;;;;;3.27;1.75;;;;;;;12.33;81.24;96850.58;1648773;86;21002;-86
2022/07/07 02:23:34;;;;;;;4.58;2.30;;;;;;;12.37;81.32;96848.94;1622718;88;20982;-86
2022/07/07 02:26:00;;;;;;;4.28;1.77;;;;;;;12.37;81.07;96840.63;1631594;87;21424;-87
2022/07/07 02:28:26;;;;;;;3.58;1.77;;;;;;;12.37;80.70;96844.53;1620199;88;21010;-87
2022/07/07 02:30:54;;;;;;;5.10;2.10;;;;;;;12.39;80.87;96838.64;1617429;86;21005;-88
2022/07/07 02:33:20;;;;;;;3.17;1.95;;;;;;;12.39;80.82;96837.34;1627128;86;21076;-88
2022/07/07 02:35:46;;;;;;;2.90;1.80;;;;;;;12.40;80.93;96831.63;1607325;87;21128;-87
2022/07/07 02:38:13;;;;;;;4.55;2.10;;;;;;;12.38;80.48;96833.61;1603573;87;21138;-87
2022/07/07 02:40:39;;;;;;;3.22;2.00;;;;;;;12.34;80.41;96830.54;1610010;87;21041;-87
2022/07/07 02:43:05;;;;;;;2.62;1.90;;;;;;;12.33;80.57;96828.43;1611670;86;20952;-86
2022/07/07 02:45:31;;;;;;;2.75;1.82;;;;;;;12.37;80.95;96827.59;1636080;87;21075;-87
2022/07/07 02:47:57;;;;;;;4.00;2.20;;;;;;;12.40;81.22;96819.91;1638425;86;20992;-87
2022/07/07 02:50:23;;;;;;;6.10;2.00;;;;;;;12.44;81.62;96834.98;1616295;86;21051;-86
2022/07/07 02:52:48;;;;;;;4.75;2.30;;;;;;;12.46;81.91;96833.00;1648961;85;21391;-87
2022/07/07 02:55:14;;;;;;;3.45;2.22;;;;;;;12.49;82.04;96837.84;1620655;87;21434;-87
2022/07/07 02:57:40;;;;;;;2.60;2.40;;;;;;;12.56;82.26;96837.45;1627354;86;21164;-86
2022/07/07 03:00:07;;;;;;;2.75;2.40;;;;;;;12.62;82.14;96839.80;1640687;86;21100;-87
2022/07/07 03:02:35;;;;;;;2.35;2.12;;;;;;;12.68;82.31;96839.06;1637672;86;20996;-87
2022/07/07 03:05:00;;;;;;;6.17;3.52;;;;;;;12.73;82.43;96838.03;1627093;87;21040;-87
2022/07/07 03:07:26;;;;;;;4.90;2.37;;;;;;;12.74;82.50;96842.76;1639627;86;21019;-86
2022/07/07 03:09:52;;;;;;;3.80;2.77;;;;;;;12.75;82.57;96839.96;1621882;87;21370;-88
2022/07/07 03:12:17;;;;;;;6.55;2.80;;;;;;;12.75;82.49;96839.16;1611595;87;20961;-88
2022/07/07 03:14:43;;;;;;;5.72;2.80;;;;;;;12.73;82.92;96839.34;1602216;88;21068;-87
2022/07/07 03:17:09;;;;;;;7.03;2.70;;;;;;;12.74;83.07;96840.15;1635127;87;20960;-88
2022/07/07 03:19:34;;;;;;;3.80;2.40;;;;;;;12.71;83.17;96836.61;1625559;86;21406;-87
2022/07/07 03:22:01;;;;;;;5.67;2.65;;;;;;;12.71;82.93;96836.61;1609026;87;20980;-87
2022/07/07 03:24:29;;;;;;;4.00;2.12;;;;;;;12.72;83.03;96839.53;1627900;87;21335;-86
2022/07/07 03:26:54;;;;;;;2.72;2.15;;;;;;;12.74;82.86;96841.45;1605822;89;20988;-86
2022/07/07 03:29:21;;;;;;;3.72;2.50;;;;;;;12.80;82.96;96840.70;1625759;86;21414;-87
2022/07/07 03:31:47;;;;;;;2.55;2.35;;;;;;;12.87;83.14;96844.21;1627590;88;21418;-86
2022/07/07 03:34:12;;;;;;;6.62;2.47;;;;;;;12.93;83.03;96843.46;1642573;85;20999;-87
2022/07/07 03:36:38;;;;;;;4.42;2.50;;;;;;;12.96;83.01;96847.00;1661747;85;20988;-87
2022/07/07 03:39:05;;;;;;;4.05;2.50;;;;;;;13.01;82.90;96850.34;1658025;84;20990;-87
2022/07/07 03:41:30;;;;;;;3.40;2.50;;;;;;;13.06;83.16;96850.12;1663513;85;21326;-87
2022/07/07 03:43:57;;;;;;;4.22;2.70;;;;;;;13.13;83.36;96849.67;1641720;85;20986;-86
2022/07/07 03:46:22;;;;;;;3.27;2.60;;;;;;;13.18;83.62;96842.16;1655276;85;21074;-87
2022/07/07 03:48:48;;;;;;;3.80;2.30;;;;;;;13.25;83.61;96840.09;1655717;85;21001;-88
2022/07/07 03:51:14;;;;;;;3.75;2.42;;;;;;;13.25;83.53;96839.59;1633894;86;21401;-88
2022/07/07 03:53:39;;;;;;;5.20;2.50;;;;;;;13.25;83.71;96832.26;1638855;86;21023;-88
2022/07/07 03:56:06;;;;;;;3.45;2.58;;;;;;;13.25;83.78;96840.89;1653928;86;20980;-88
2022/07/07 03:58:31;;;;;;;2.58;2.30;;;;;;;13.29;84.07;96836.10;1659736;85;21373;-87
2022/07/07 04:00:59;;;;;;;3.70;2.33;;;;;;;13.33;83.99;96826.40;1640896;85;21037;-88
2022/07/07 04:03:26;;;;;;;2.58;2.20;;;;;;;13.37;84.17;96829.47;1658901;85;20984;-88
2022/07/07 04:05:51;;;;;;;3.65;2.77;;;;;;;13.30;84.26;96812.92;1693194;85;20964;-88
2022/07/07 04:08:17;;;;;;;3.55;2.30;;;;;;;13.45;84.42;96828.02;1693193;84;20968;-88
2022/07/07 04:10:43;;;;;;;3.27;2.35;;;;;;;13.47;84.46;96826.82;1684148;85;20999;-88
2022/07/07 04:13:09;;;;;;;3.45;2.08;;;;;;;13.52;84.46;96828.89;1625689;85;20966;-88
2022/07/07 04:15:34;;;;;;;2.45;2.20;;;;;;;13.56;84.32;96827.51;1652232;85;21002;-86
2022/07/07 04:18:01;;;;;;;2.67;2.47;;;;;;;13.57;84.28;96822.59;1654038;86;20983;-87
2022/07/07 04:20:29;;;;;;;3.62;2.60;;;;;;;13.59;84.40;96820.59;1693165;83;20987;-87
2022/07/07 04:22:55;;;;;;;3.62;2.50;;;;;;;13.59;84.56;96821.09;1693328;84;20948;-87
2022/07/07 04:25:21;;;;;;;3.33;2.50;;;;;;;13.59;84.58;96818.48;1692566;84;20996;-87
2022/07/07 04:27:47;;;;;;;5.78;2.50;;;;;;;13.59;84.60;96814.06;1682538;85;21092;-86
2022/07/07 04:30:13;;;;;;;4.20;2.40;;;;;;;13.59;84.86;96817.98;1672104;85;21058;-87
2022/07/07 04:32:40;;;;;;;6.70;2.55;;;;;;;13.62;84.91;96813.68;1691136;83;21008;-87
2022/07/07 04:35:07;;;;;;;3.27;2.67;;;;;;;13.64;85.05;96809.08;1644552;85;21030;-87
2022/07/07 04:37:33;;;;;;;3.27;2.42;;;;;;;13.66;85.14;96807.08;1640220;86;21045;-87
2022/07/07 04:39:59;;;;;;;4.37;2.67;;;;;;;13.68;85.37;96802.49;1639783;86;20938;-85
2022/07/07 04:42:25;;;;;;;3.85;2.67;;;;;;;13.73;85.63;96800.61;1640403;87;20961;-86
2022/07/07 04:44:51;;;;;;;3.12;2.80;;;;;;;13.80;85.88;96805.36;1614720;88;21007;-87
2022/07/07 04:47:17;;;;;;;3.87;2.42;;;;;;;13.87;85.94;96810.64;1622273;88;21025;-87
2022/07/07 04:49:42;;;;;;;5.05;3.00;;;;;;;13.92;85.98;96812.98;1636076;87;20984;-86
2022/07/07 04:52:08;;;;;;;5.20;2.60;;;;;;;13.97;85.93;96813.70;1636128;88;21374;-87
2022/07/07 04:54:34;;;;;;;3.70;3.17;;;;;;;14.01;85.88;96814.45;1639189;87;21016;-87
2022/07/07 04:57:00;;;;;;;3.90;2.62;;;;;;;14.05;85.82;96812.26;1633074;86;20964;-87
2022/07/07 04:59:25;;;;;;;3.92;2.80;;;;;;;14.07;85.61;96810.25;1632418;86;21007;-87
2022/07/07 05:01:51;;;;;;;6.67;2.55;;;;;;;14.09;85.61;96810.86;1636016;86;20933;-88
2022/07/07 05:04:17;;;;;;;2.58;2.20;;;;;;;14.11;85.50;96806.25;1635006;87;21000;-88
2022/07/07 05:06:43;;;;;;;3.33;1.87;;;;;;;14.14;85.53;96807.16;1631775;87;21439;-87
2022/07/07 05:09:09;;;;;;;3.40;2.25;;;;;;;14.16;85.49;96807.00;1635194;86;20977;-89
2022/07/07 05:11:36;;;;;;;3.27;2.22;;;;;;;14.19;85.52;96804.80;1618152;87;20991;-89
2022/07/07 05:14:02;;;;;;;3.60;2.25;;;;;;;14.25;85.63;96808.44;1635764;88;21241;-88
2022/07/07 05:16:30;;;;;;;8.48;1.98;;;;;;;14.32;85.33;96811.90;1635693;87;21023;-88
2022/07/07 05:18:56;;;;;;;3.67;2.20;;;;;;;14.32;85.44;96814.02;1634750;86;21370;-88
2022/07/07 05:21:21;;;;;;;2.42;1.90;;;;;;;14.35;85.57;96801.05;1630295;88;20995;-88
2022/07/07 05:23:47;;;;;;;2.65;1.77;;;;;;;14.37;85.80;96806.38;1641275;86;21054;-88
2022/07/07 05:26:13;;;;;;;1.98;1.72;;;;;;;14.42;86.18;96800.56;1633528;87;21402;-88
2022/07/07 05:28:41;;;;;;;4.47;2.20;;;;;;;14.48;86.15;96798.52;1634237;88;21094;-89
2022/07/07 05:31:07;;;;;;;3.87;2.17;;;;;;;14.52;86.25;96798.43;1634078;87;21442;-88
2022/07/07 05:33:33;;;;;;;4.15;2.22;;;;;;;14.57;86.22;96796.02;1626465;86;21076;-88
2022/07/07 05:35:59;;;;;;;3.45;2.37;;;;;;;14.62;86.39;96801.97;1651034;86;21332;-89
2022/07/07 05:38:25;;;;;;;3.25;2.58;;;;;;;14.62;86.59;96800.66;1642897;86;21059;-89
2022/07/07 05:40:50;;;;;;;3.40;2.45;;;;;;;14.63;86.77;96804.38;1644181;87;21034;-89
2022/07/07 05:43:16;;;;;;;2.65;2.30;;;;;;;14.68;86.92;96802.00;1640578;87;21046;-89
2022/07/07 05:45:42;;;;;;;3.02;2.42;;;;;;;14.72;86.85;96801.09;1642400;86;21098;-87
2022/07/07 05:48:07;;;;;;;2.60;2.05;;;;;;;14.77;86.21;96795.27;1627624;86;21005;-88
2022/07/07 05:50:33;;;;;;;2.30;1.80;;;;;;;14.80;86.19;96794.36;1643723;86;21038;-88
2022/07/07 05:52:59;;;;;;;2.92;2.10;;;;;;;14.87;86.33;96804.36;1641259;86;21349;-88
2022/07/07 05:55:25;;;;;;;2.35;1.80;;;;;;;14.95;86.57;96804.16;1640492;86;20958;-88
2022/07/07 05:57:51;;;;;;;3.27;2.25;;;;;;;15.03;86.53;96801.88;1650392;86;20994;-87
2022/07/07 06:00:17;;;;;;;2.40;2.20;;;;;;;15.09;86.46;96800.27;1643832;86;20990;-89
2022/07/07 06:02:43;;;;;;;2.67;2.00;;;;;;;15.13;86.45;96798.84;1646928;86;21009;-89
2022/07/07 06:05:09;;;;;;;4.20;2.10;;;;;;;15.16;86.67;96791.93;1697386;84;21018;-88
2022/07/07 06:07:34;;;;;;;2.37;2.17;;;;;;;15.20;86.89;96795.25;1670410;84;21350;-88
2022/07/07 06:10:00;;;;;;;2.37;2.17;;;;;;;15.27;86.62;96791.31;1672299;84;21019;-88
2022/07/07 06:12:26;;;;;;;3.83;2.22;;;;;;;15.35;86.54;96794.25;1688799;84;21010;-88
2022/07/07 06:14:52;;;;;;;3.08;2.37;;;;;;;15.48;85.89;96796.88;1666358;84;21378;-88
2022/07/07 06:17:18;;;;;;;4.60;3.27;;;;;;;15.60;85.77;96794.76;1632340;86;21119;-88
2022/07/07 06:19:43;;;;;;;4.05;2.90;;;;;;;15.73;84.12;96790.52;1656361;86;21021;-88
2022/07/07 06:22:09;;;;;;;2.95;2.70;;;;;;;15.87;85.00;96790.30;1648127;85;21342;-86
2022/07/07 06:24:35;;;;;;;4.37;3.52;;;;;;;16.01;84.00;96791.58;1657549;85;21037;-87
2022/07/07 06:27:01;;;;;;;3.60;3.02;;;;;;;16.09;83.31;96793.97;1662985;86;21069;-87
2022/07/07 06:29:26;;;;;;;3.75;3.02;;;;;;;16.17;83.54;96795.88;1681814;85;21341;-89
2022/07/07 06:31:52;;;;;;;5.75;3.00;;;;;;;16.26;82.96;96792.50;1662294;84;20997;-88
2022/07/07 06:34:18;;;;;;;4.20;2.58;;;;;;;16.31;82.16;96790.08;1671866;84;21038;-88
2022/07/07 06:36:44;;;;;;;5.45;3.02;;;;;;;16.41;82.67;96793.05;1676092;84;21007;-90
2022/07/07 06:39:09;;;;;;;2.87;2.62;;;;;;;16.48;80.58;96792.53;1688296;83;20964;-86
2022/07/07 06:41:36;;;;;;;4.50;3.20;;;;;;;16.59;81.03;96789.73;1684562;84;21071;-86
2022/07/07 06:44:05;;;;;;;2.95;2.62;;;;;;;16.67;80.51;96782.98;1677450;84;21102;-86
2022/07/07 06:46:31;;;;;;;2.60;2.40;;;;;;;16.77;81.47;96782.03;1691285;84;21137;-87
2022/07/07 06:48:57;;;;;;;4.03;2.60;;;;;;;16.87;82.05;96777.61;1671891;85;20971;-87
2022/07/07 06:51:23;;;;;;;3.17;2.70;;;;;;;16.96;79.64;96782.11;1677014;84;21030;-86
2022/07/07 06:53:49;;;;;;;3.75;2.52;;;;;;;17.04;80.58;96781.84;1678092;83;20966;-86
2022/07/07 06:56:14;;;;;;;6.25;3.02;;;;;;;17.09;78.04;96777.59;1678497;84;21322;-86
2022/07/07 06:58:41;;;;;;;6.53;2.87;;;;;;;17.18;77.26;96779.42;1677683;84;20986;-86
2022/07/07 07:01:07;;;;;;;3.12;2.72;;;;;;;17.29;76.94;96779.25;1669123;84;21022;-86
2022/07/07 07:03:34;;;;;;;5.10;2.92;;;;;;;17.38;75.98;96782.70;1672347;84;21114;-87
2022/07/07 07:06:00;;;;;;;3.65;2.98;;;;;;;17.45;77.20;96780.03;1676438;84;21053;-88
2022/07/07 07:08:25;;;;;;;3.62;2.70;;;;;;;17.51;76.10;96773.91;1686622;83;21071;-86
2022/07/07 07:10:51;;;;;;;3.35;2.37;;;;;;;17.60;74.62;96774.45;1676972;84;21041;-87
2022/07/07 07:13:19;;;;;;;3.45;2.80;;;;;;;17.69;74.40;96773.97;1677353;86;21054;-87
2022/07/07 07:15:45;;;;;;;2.87;2.55;;;;;;;17.76;72.55;96764.73;1678123;84;21081;-87
2022/07/07 07:18:12;;;;;;;3.25;2.33;;;;;;;17.85;72.73;96769.17;1643568;87;20947;-87
2022/07/07 07:20:37;;;;;;;3.60;2.40;;;;;;;17.90;71.63;96763.57;1659728;84;21007;-87
2022/07/07 07:23:03;;;;;;;3.00;2.22;;;;;;;18.04;71.62;96768.66;1676245;83;20932;-87
2022/07/07 07:25:29;;;;;;;5.03;2.30;;;;;;;18.05;70.99;96760.55;1660894;86;21125;-87
2022/07/07 07:27:54;;;;;;;4.87;2.80;;;;;;;18.15;71.31;96762.69;1671363;84;20955;-87
2022/07/07 07:30:20;;;;;;;3.08;2.00;;;;;;;18.24;69.81;96771.39;1668662;86;21034;-87
2022/07/07 07:32:46;;;;;;;3.15;2.30;;;;;;;18.30;69.65;96767.86;1665314;84;21062;-86
2022/07/07 07:35:13;;;;;;;2.83;2.20;;;;;;;18.38;68.63;96769.37;1682146;83;21052;-87
2022/07/07 07:40:19;;;;;;;4.35;3.20;;;;;;;18.59;67.57;96767.61;1761702;80;22710;-87
2022/07/07 07:42:44;;;;;;;2.87;2.22;;;;;;;18.60;68.58;96771.84;1772277;80;21076;-87
2022/07/07 07:45:11;;;;;;;2.47;2.22;;;;;;;18.70;70.87;96762.63;1775508;80;21434;-87
2022/07/07 07:47:44;;;;;;;19.12;10.75;;;;;;;18.74;67.83;96763.80;1752797;80;21052;-86
2022/07/07 07:50:12;;;;;;;16.45;9.73;;;;;;;18.82;68.21;96759.02;1749949;80;21322;-86
2022/07/07 07:52:39;;;;;;;6.97;4.67;;;;;;;18.93;68.21;96760.09;1766566;80;21553;-86
2022/07/07 07:55:07;;;;;;;7.60;3.95;;;;;;;19.06;67.82;96761.21;1749751;80;20976;-85
2022/07/07 07:57:33;;;;;;;2.85;2.20;;;;;;;19.16;69.00;96760.64;1768290;80;21329;-85
2022/07/07 07:59:59;;;;;;;3.05;2.60;;;;;;;19.21;67.52;96759.98;1770601;80;20945;-85
2022/07/07 08:02:25;;;;;;;3.12;2.85;;;;;;;19.26;65.51;96761.41;1765763;80;20952;-87
2022/07/07 08:04:51;;;;;;;4.37;3.35;;;;;;;19.32;65.52;96761.81;1760379;80;21348;-86
2022/07/07 08:07:17;;;;;;;6.87;5.05;;;;;;;19.45;66.11;96766.36;1744083;80;20996;-86
2022/07/07 08:09:44;;;;;;;4.10;3.17;;;;;;;19.43;65.36;96756.56;1753973;81;20945;-86
2022/07/07 08:12:10;;;;;;;4.12;3.00;;;;;;;19.43;64.36;96761.03;1762272;80;20941;-86
2022/07/07 08:14:35;;;;;;;4.85;2.45;;;;;;;19.56;64.61;96759.52;1770372;80;20969;-87
2022/07/07 08:17:01;;;;;;;4.70;2.60;;;;;;;19.64;64.81;96748.63;1743924;81;20979;-87
2022/07/07 08:19:27;;;;;;;4.42;2.50;;;;;;;19.69;63.11;96757.98;1749010;81;21003;-87
2022/07/07 08:21:53;;;;;;;3.50;2.40;;;;;;;19.82;63.08;96751.64;1745255;80;21060;-86
2022/07/07 08:24:20;;;;;;;2.95;2.60;;;;;;;19.88;63.61;96748.63;1760073;80;21415;-86
2022/07/07 08:26:46;;;;;;;5.03;2.58;;;;;;;19.75;63.86;96743.88;1746853;81;20952;-86
2022/07/07 08:29:13;;;;;;;2.62;2.40;;;;;;;19.61;63.99;96748.28;1741287;81;21331;-87
2022/07/07 08:31:39;;;;;;;3.08;2.77;;;;;;;19.45;65.31;96755.01;1768096;80;21028;-87
2022/07/07 08:34:09;;;;;;;4.47;2.75;;;;;;;19.22;64.37;96753.17;1754660;80;21020;-87
2022/07/07 08:36:42;;;;;;;4.12;3.70;;;;;;;19.06;64.46;96754.63;1724366;81;21375;-87
2022/07/07 08:39:08;;;;;;;5.15;3.15;;;;;;;19.23;64.38;96750.02;1723467;81;21044;-87
2022/07/07 08:41:34;;;;;;;5.33;2.70;;;;;;;19.48;64.31;96747.95;1748681;81;21036;-87
2022/07/07 08:44:00;;;;;;;4.55;3.05;;;;;;;19.76;63.63;96742.03;1701728;81;21284;-88
2022/07/07 08:46:26;;;;;;;3.85;2.65;;;;;;;20.05;64.27;96742.92;1753575;80;20964;-88
2022/07/07 08:48:53;;;;;;;5.10;2.98;;;;;;;20.19;62.31;96743.46;1758055;80;21374;-87
2022/07/07 08:51:19;;;;;;;6.20;3.37;;;;;;;20.22;62.16;96739.03;1760940;80;20948;-85
2022/07/07 08:53:48;;;;;;;3.75;2.65;;;;;;;20.16;62.36;96737.31;1736973;80;20917;-86
2022/07/07 08:56:14;;;;;;;4.25;2.55;;;;;;;20.21;63.56;96731.64;1747455;81;21082;-87
2022/07/07 08:58:40;;;;;;;3.20;2.80;;;;;;;20.51;62.63;96729.34;1732135;82;21000;-87
2022/07/07 09:01:06;;;;;;;4.65;2.42;;;;;;;20.61;62.96;96728.19;1722033;82;20987;-87
2022/07/07 09:03:33;;;;;;;3.42;2.90;;;;;;;20.89;62.32;96736.09;1730190;82;20952;-87
2022/07/07 09:05:59;;;;;;;4.75;3.00;;;;;;;21.18;61.02;96732.88;1745577;82;20985;-86
2022/07/07 09:08:26;;;;;;;7.95;2.85;;;;;;;21.31;60.18;96735.73;1736287;81;21419;-87
2022/07/07 09:10:52;;;;;;;3.67;2.37;;;;;;;21.56;59.37;96734.80;1741991;81;20975;-88
2022/07/07 09:13:30;;;;;;;3.90;2.30;;;;;;;21.67;60.84;96730.98;1748582;81;20938;-86
2022/07/07 09:16:01;;;;;;;4.55;2.20;;;;;;;21.75;59.90;96721.30;1747547;82;21044;-87
2022/07/07 09:18:46;;;;;;;4.72;2.05;;;;;;;21.73;60.67;96732.13;1746536;81;21051;-87
2022/07/07 09:21:29;;;;;;;3.27;1.75;;;;;;;21.93;59.46;96734.76;1736841;82;20967;-87
2022/07/07 09:24:01;;;;;;;2.45;1.80;;;;;;;22.23;57.69;96731.73;1744302;82;20968;-86
2022/07/07 09:26:43;;;;;;;2.55;1.57;;;;;;;22.19;57.38;96730.63;1736692;82;20983;-86
2022/07/07 09:29:15;;;;;;;3.05;1.67;;;;;;;22.19;57.92;96734.59;1726486;82;21370;-86
2022/07/07 09:32:04;;;;;;;2.70;1.67;;;;;;;21.99;54.30;96724.02;1739342;82;20955;-87
2022/07/07 09:34:32;;;;;;;4.35;1.80;;;;;;;21.68;53.27;96721.48;1732568;82;21019;-87
2022/07/07 09:39:50;;;;;;;2.67;1.77;;;;;;;21.27;57.87;96723.52;1728150;81;21091;-86
2022/07/07 09:42:21;;;;;;;3.25;2.02;;;;;;;21.55;57.46;96721.30;1751544;81;21031;-88
2022/07/07 09:45:00;;;;;;;2.27;1.70;;;;;;;21.73;55.53;96720.75;1757621;80;21113;-86
2022/07/07 09:47:27;;;;;;;4.37;1.87;;;;;;;21.92;55.29;96719.94;1695505;81;21033;-85
2022/07/07 09:50:06;;;;;;;3.58;2.10;;;;;;;21.88;54.55;96717.78;1743365;81;20995;-85
2022/07/07 09:52:37;;;;;;;2.35;1.98;;;;;;;21.77;54.68;96717.36;1745731;81;21437;-85
2022/07/07 09:55:12;;;;;;;2.37;1.60;;;;;;;21.66;54.22;96720.14;1739231;81;21105;-85
2022/07/07 09:57:40;;;;;;;3.75;2.22;;;;;;;21.51;56.73;96721.52;1746075;81;21019;-88
2022/07/07 10:00:06;;;;;;;5.05;2.40;;;;;;;21.34;58.11;96717.29;1746353;81;21377;-85
2022/07/07 10:02:32;;;;;;;3.15;1.80;;;;;;;21.16;59.35;96720.43;1738908;81;21354;-87
2022/07/07 10:05:00;;;;;;;3.15;1.80;;;;;;;20.94;60.00;96725.59;1743174;81;21002;-86
2022/07/07 10:07:28;;;;;;;3.12;2.12;;;;;;;20.78;60.92;96723.73;1754952;81;20995;-86
2022/07/07 10:09:57;;;;;;;5.53;2.00;;;;;;;20.65;61.79;96722.70;1752258;81;21098;-85
2022/07/07 10:12:26;;;;;;;4.80;2.10;;;;;;;20.59;60.96;96721.83;1743804;80;20968;-86
2022/07/07 10:15:00;;;;;;;2.72;2.05;;;;;;;20.60;63.47;96726.58;1741159;81;21321;-86
2022/07/07 10:17:27;;;;;;;3.75;2.35;;;;;;;20.58;63.90;96724.70;1745082;81;20991;-85
2022/07/07 10:19:52;;;;;;;2.85;2.35;;;;;;;20.57;61.56;96723.91;1740992;81;21438;-85
2022/07/07 10:22:21;;;;;;;3.67;2.10;;;;;;;20.55;61.30;96720.70;1743669;81;21019;-86
2022/07/07 10:24:46;;;;;;;2.95;1.90;;;;;;;20.48;62.68;96723.98;1756095;81;21038;-86
2022/07/07 10:27:14;;;;;;;2.35;2.08;;;;;;;20.37;63.29;96721.66;1747088;81;21006;-87
2022/07/07 10:29:57;;;;;;;3.17;2.37;;;;;;;20.29;63.90;96726.49;1752451;81;20963;-87
2022/07/07 10:32:45;;;;;;;4.70;2.55;;;;;;;20.21;64.61;96725.05;1754429;81;21361;-86
2022/07/07 10:35:13;;;;;;;2.87;2.40;;;;;;;20.11;65.30;96723.51;1746685;81;21074;-86
2022/07/07 10:37:51;;;;;;;3.02;2.33;;;;;;;20.02;64.54;96724.92;1741336;81;21018;-87
2022/07/07 10:40:22;;;;;;;2.90;2.47;;;;;;;19.99;65.57;96724.84;1749806;81;21131;-87
2022/07/07 10:43:29;;;;;;;4.20;2.30;;;;;;;19.99;66.19;96720.89;1763382;80;21079;-87
2022/07/07 10:45:55;;;;;;;3.60;2.22;;;;;;;19.99;65.46;96719.57;1762001;80;20963;-87
2022/07/07 10:48:46;;;;;;;3.17;2.00;;;;;;;20.13;66.18;96715.36;1761838;81;21348;-86
2022/07/07 10:51:21;;;;;;;4.47;2.22;;;;;;;20.19;63.31;96717.08;1759801;80;20950;-86
2022/07/07 10:53:58;;;;;;;3.35;2.72;;;;;;;20.26;65.93;96714.58;1753845;81;21039;-87
2022/07/07 10:56:24;;;;;;;3.15;2.22;;;;;;;20.34;63.31;96714.73;1763996;81;20955;-87
2022/07/07 10:59:01;;;;;;;4.55;2.50;;;;;;;20.59;65.00;96703.86;1749380;81;20990;-87
2022/07/07 11:01:29;;;;;;;3.95;2.33;;;;;;;20.97;62.51;96702.66;1747447;81;21256;-88
2022/07/07 11:03:55;;;;;;;4.05;2.45;;;;;;;21.38;60.18;96703.34;1753104;80;21019;-88
2022/07/07 11:06:21;;;;;;;3.62;1.98;;;;;;;21.67;59.44;96693.97;1747812;81;21389;-87
2022/07/07 11:09:01;;;;;;;2.37;1.82;;;;;;;21.97;59.06;96697.00;1760699;81;21065;-87
2022/07/07 11:11:27;;;;;;;2.67;2.00;;;;;;;22.12;57.99;96698.52;1773572;81;21271;-86
2022/07/07 11:14:04;;;;;;;2.77;2.27;;;;;;;22.06;59.48;96698.19;1763186;81;20935;-87
2022/07/07 11:16:30;;;;;;;2.92;2.00;;;;;;;21.98;60.11;96693.84;1754086;81;20975;-86
2022/07/07 11:19:00;;;;;;;4.70;2.60;;;;;;;21.74;58.97;96687.96;1689977;83;20982;-90
2022/07/07 11:21:43;;;;;;;3.42;2.25;;;;;;;21.74;58.97;96687.96;1759015;81;21361;-88
2022/07/07 11:24:22;;;;;;;4.58;2.05;;;;;;;21.57;58.38;96686.16;1760396;81;21433;-86
2022/07/07 11:27:02;;;;;;;3.17;2.12;;;;;;;21.41;58.35;96686.19;1762394;81;21010;-86
2022/07/07 11:29:28;;;;;;;2.70;2.30;;;;;;;21.39;60.28;96689.60;1765503;81;21358;-86
2022/07/07 11:32:04;;;;;;;2.20;2.00;;;;;;;21.23;58.55;96691.19;1763487;80;21011;-86
2022/07/07 11:34:43;;;;;;;4.47;1.98;;;;;;;21.18;62.01;96685.31;1776332;81;20959;-86
2022/07/07 11:37:22;;;;;;;2.95;2.08;;;;;;;21.19;62.74;96680.83;1768716;80;20951;-87
2022/07/07 11:39:48;;;;;;;3.20;2.02;;;;;;;21.16;60.78;96690.05;1770964;81;21007;-85
2022/07/07 11:42:13;;;;;;;4.78;2.55;;;;;;;21.14;62.78;96682.84;1759250;82;21003;-86